Portada
METAR-TAF:

METAR-TAF

Aeroports :

Scatsta, Shetland, Escòcia

latitud: 60-26N, longitud: 001-18W, altitud: 22 m

Observació

L'informe es va fer fa 38 minuts, a les 15:50 UTC
Vent 8 kt del Sud-Est
Temperatura 2°C
Humitat 80%
Pressió 996 hPa
Visibilitat 10 km o més

METAR: EGPM 071550Z AUTO 14008KT 9999 SCT035/// 02/M01 Q0996

Hora: 16:28 (16:28 UTC)

Pronòstic

L'informe es va fer fa 8 hores i 32 minuts, a les 07:56 UTC
Pronòstic vàlid del 07 a les 09 UTC al 07 a les 18 UTC
Vent 8 kt del Oest/Nord-Oest
Visibilitat 10 km o més
Núvols disperses a una alçada de 3000 ft
Evolucionant progressivament
l' 07 a les 13 UTC al 07 a les 16 UTC
Vent 10 kt del Sud-Est

TAF: EGPM 070756Z 0709/0718 29008KT 9999 SCT030 BECMG 0713/0716 14010KT

Observacions i pronòstics meteorològics de més de 4000 aeroports (METAR i TAF).

Les estacions disponibles són els punts grocs i vermells al mapa.

Posi el ratolí al punt desitjat per veure el nom de l'estació.

Feu clic per veure les observacions i els pronòstics meteorològics.

Per canviar el mapa: feu clic els botons verds amb una creu de color negre per apropar; al botó verd amb un guió per allunyar la imatge; o en les fletxes verdes per a mapes adjacents.


METAR-TAF: